createdAt,value
2023-04-02T00:00:11.833Z,5.93
2023-04-02T00:01:11.680Z,5.93
2023-04-02T00:02:11.974Z,5.91
2023-04-02T00:03:11.726Z,5.88
2023-04-02T00:04:11.717Z,5.86
2023-04-02T00:05:11.690Z,5.88
2023-04-02T00:06:11.619Z,5.86
2023-04-02T00:07:11.623Z,5.85
2023-04-02T00:08:11.596Z,5.82
2023-04-02T00:09:11.881Z,5.85
2023-04-02T00:10:11.599Z,5.85
2023-04-02T00:11:11.593Z,5.85
2023-04-02T00:12:11.576Z,5.86
2023-04-02T00:13:11.555Z,5.86
2023-04-02T00:14:11.535Z,5.86
2023-04-02T00:15:11.541Z,5.86
2023-04-02T00:16:11.782Z,5.86
2023-04-02T00:17:11.541Z,5.86
2023-04-02T00:18:11.559Z,5.85
2023-04-02T00:19:11.468Z,5.85
2023-04-02T00:20:11.558Z,5.83
2023-04-02T00:21:11.472Z,5.83
2023-04-02T00:22:11.442Z,5.82
2023-04-02T00:23:11.758Z,5.82
2023-04-02T00:24:11.419Z,5.82
2023-04-02T00:25:11.431Z,5.82
2023-04-02T00:26:11.399Z,5.78
2023-04-02T00:27:11.383Z,5.78
2023-04-02T00:28:11.386Z,5.75
2023-04-02T00:29:11.391Z,5.77
2023-04-02T00:30:11.643Z,5.78
2023-04-02T00:31:11.352Z,5.81
2023-04-02T00:32:11.407Z,5.77
2023-04-02T00:33:11.352Z,5.77
2023-04-02T00:34:11.319Z,5.73
2023-04-02T00:35:11.374Z,5.74
2023-04-02T00:36:11.321Z,5.74
2023-04-02T00:37:11.567Z,5.75
2023-04-02T00:38:11.310Z,5.75
2023-04-02T00:39:11.276Z,5.68
2023-04-02T00:40:11.265Z,5.64
2023-04-02T00:41:11.291Z,5.67
2023-04-02T00:42:11.242Z,5.68
2023-04-02T00:43:11.222Z,5.66
2023-04-02T00:44:11.518Z,5.57
2023-04-02T00:45:11.207Z,5.57
2023-04-02T00:46:11.286Z,5.57
2023-04-02T00:47:11.315Z,5.56
2023-04-02T00:48:11.193Z,5.56
2023-04-02T00:49:11.162Z,5.56
2023-04-02T00:50:11.180Z,5.56
2023-04-02T00:51:11.432Z,5.56
2023-04-02T00:52:11.130Z,5.57
2023-04-02T00:53:11.153Z,5.57
2023-04-02T00:54:11.112Z,5.56
2023-04-02T00:55:11.090Z,5.53
2023-04-02T00:56:11.087Z,5.52
2023-04-02T00:57:11.083Z,5.49
2023-04-02T00:58:11.089Z,5.49
2023-04-02T00:59:11.103Z,5.48
2023-04-02T01:00:11.067Z,5.46
2023-04-02T01:01:11.074Z,5.48
2023-04-02T01:02:11.063Z,5.46
2023-04-02T01:03:11.045Z,5.46
2023-04-02T01:04:11.275Z,5.46
2023-04-02T01:05:11.021Z,5.45
2023-04-02T01:06:11.167Z,5.48
2023-04-02T01:07:10.962Z,5.45
2023-04-02T01:08:10.962Z,5.45
2023-04-02T01:09:10.951Z,5.45
2023-04-02T01:10:10.938Z,5.45
2023-04-02T01:11:10.987Z,5.48
2023-04-02T01:12:10.913Z,5.46
2023-04-02T01:13:10.908Z,5.48
2023-04-02T01:14:10.894Z,5.43
2023-04-02T01:15:10.883Z,5.40
2023-04-02T01:16:11.230Z,5.37
2023-04-02T01:17:10.903Z,5.38
2023-04-02T01:18:10.960Z,5.38
2023-04-02T01:19:10.830Z,5.38
2023-04-02T01:20:10.827Z,5.32
2023-04-02T01:21:10.814Z,5.31
2023-04-02T01:22:10.810Z,5.32
2023-04-02T01:23:10.879Z,5.34
2023-04-02T01:24:10.804Z,5.32
2023-04-02T01:25:10.780Z,5.31
2023-04-02T01:26:10.799Z,5.34
2023-04-02T01:27:10.780Z,5.34
2023-04-02T01:28:11.053Z,5.34
2023-04-02T01:29:10.758Z,5.31
2023-04-02T01:30:10.724Z,5.28
2023-04-02T01:31:10.726Z,5.28
2023-04-02T01:32:10.700Z,5.25
2023-04-02T01:33:10.777Z,5.22
2023-04-02T01:34:10.675Z,5.22
2023-04-02T01:35:10.717Z,5.19
2023-04-02T01:36:10.714Z,5.17
2023-04-02T01:37:10.652Z,5.19
2023-04-02T01:38:10.664Z,5.17
2023-04-02T01:39:10.652Z,5.13
2023-04-02T01:40:10.635Z,5.13
2023-04-02T01:41:10.930Z,5.14
2023-04-02T01:42:10.595Z,5.16
2023-04-02T01:43:10.570Z,5.14
2023-04-02T01:44:10.585Z,5.17
2023-04-02T01:45:10.574Z,5.20
2023-04-02T01:46:10.576Z,5.16
2023-04-02T01:47:10.577Z,5.09
2023-04-02T01:48:10.819Z,5.09
2023-04-02T01:49:10.522Z,5.07
2023-04-02T01:50:10.507Z,5.09
2023-04-02T01:51:10.488Z,5.07
2023-04-02T01:52:10.506Z,5.05
2023-04-02T01:53:10.535Z,5.02
2023-04-02T01:54:10.480Z,5.02
2023-04-02T01:55:10.774Z,5.01
2023-04-02T01:56:10.450Z,5.01
2023-04-02T01:57:10.442Z,4.94
2023-04-02T01:58:10.427Z,4.94
2023-04-02T01:59:10.452Z,4.92
2023-04-02T02:00:10.464Z,4.94
2023-04-02T02:01:10.414Z,4.94
2023-04-02T02:02:10.418Z,4.96
2023-04-02T02:03:10.378Z,4.96
2023-04-02T02:04:10.380Z,5.01
2023-04-02T02:05:10.397Z,5.01
2023-04-02T02:06:10.352Z,4.99
2023-04-02T02:07:10.361Z,4.99
2023-04-02T02:08:10.609Z,4.95
2023-04-02T02:09:10.295Z,4.91
2023-04-02T02:10:10.323Z,4.88
2023-04-02T02:11:10.333Z,4.86
2023-04-02T02:12:10.291Z,4.80
2023-04-02T02:13:10.276Z,4.77
2023-04-02T02:14:10.270Z,4.76
2023-04-02T02:15:10.246Z,4.72
2023-04-02T02:16:10.244Z,4.70
2023-04-02T02:17:10.257Z,4.69
2023-04-02T02:18:10.218Z,4.67
2023-04-02T02:19:10.232Z,4.65
2023-04-02T02:20:10.213Z,4.61
2023-04-02T02:21:10.476Z,4.58
2023-04-02T02:22:10.174Z,4.59
2023-04-02T02:23:10.194Z,4.57
2023-04-02T02:24:10.147Z,4.57
2023-04-02T02:25:10.156Z,4.57
2023-04-02T02:26:10.141Z,4.55
2023-04-02T02:27:10.121Z,4.55
2023-04-02T02:28:10.120Z,4.57
2023-04-02T02:29:10.149Z,4.57
2023-04-02T02:30:10.142Z,4.55
2023-04-02T02:31:10.066Z,4.55
2023-04-02T02:32:10.088Z,4.57
2023-04-02T02:33:10.329Z,4.54
2023-04-02T02:34:10.060Z,4.54
2023-04-02T02:35:10.092Z,4.47
2023-04-02T02:36:10.042Z,4.46
2023-04-02T02:37:10.034Z,4.44
2023-04-02T02:38:10.002Z,4.44
2023-04-02T02:39:09.997Z,4.40
2023-04-02T02:40:09.996Z,4.40
2023-04-02T02:41:10.018Z,4.39
2023-04-02T02:42:09.986Z,4.39
2023-04-02T02:43:09.962Z,4.37
2023-04-02T02:44:09.945Z,4.36
2023-04-02T02:45:10.214Z,4.37
2023-04-02T02:46:09.944Z,4.39
2023-04-02T02:47:09.951Z,4.42
2023-04-02T02:48:09.891Z,4.40
2023-04-02T02:49:09.932Z,4.40
2023-04-02T02:50:09.879Z,4.42
2023-04-02T02:51:09.861Z,4.43
2023-04-02T02:52:09.894Z,4.39
2023-04-02T02:53:09.885Z,4.37
2023-04-02T02:54:09.832Z,4.33
2023-04-02T02:55:09.813Z,4.29
2023-04-02T02:56:09.805Z,4.29
2023-04-02T02:57:09.832Z,4.29
2023-04-02T02:58:10.115Z,4.32
2023-04-02T02:59:09.832Z,4.33
2023-04-02T03:00:09.779Z,4.32
2023-04-02T03:01:09.791Z,4.28
2023-04-02T03:02:09.785Z,4.24
2023-04-02T03:03:09.858Z,4.22
2023-04-02T03:04:09.837Z,4.21
2023-04-02T03:05:10.146Z,4.19
2023-04-02T03:06:09.711Z,4.18
2023-04-02T03:07:09.704Z,4.16
2023-04-02T03:08:09.675Z,4.15
2023-04-02T03:09:09.683Z,4.18
2023-04-02T03:10:09.662Z,4.18
2023-04-02T03:11:09.709Z,4.18
2023-04-02T03:12:09.923Z,4.18
2023-04-02T03:13:09.631Z,4.14
2023-04-02T03:14:09.615Z,4.14
2023-04-02T03:15:09.609Z,4.15
2023-04-02T03:16:09.616Z,4.12
2023-04-02T03:17:09.648Z,4.08
2023-04-02T03:18:09.606Z,4.07
2023-04-02T03:19:09.850Z,4.08
2023-04-02T03:20:09.580Z,4.08
2023-04-02T03:21:09.595Z,4.07
2023-04-02T03:22:09.578Z,4.07
2023-04-02T03:23:09.584Z,4.07
2023-04-02T03:24:09.575Z,4.04
2023-04-02T03:25:09.507Z,4.07
2023-04-02T03:26:09.786Z,4.08
2023-04-02T03:27:09.494Z,4.07
2023-04-02T03:28:09.474Z,4.00
2023-04-02T03:29:09.561Z,4.01
2023-04-02T03:30:09.447Z,3.97
2023-04-02T03:31:09.528Z,3.96
2023-04-02T03:32:09.439Z,3.97
2023-04-02T03:33:09.786Z,3.94
2023-04-02T03:34:09.425Z,3.94
2023-04-02T03:35:09.451Z,3.94
2023-04-02T03:36:09.451Z,3.94
2023-04-02T03:37:09.393Z,3.90
2023-04-02T03:38:09.368Z,3.90
2023-04-02T03:39:09.362Z,3.88
2023-04-02T03:40:09.655Z,3.88
2023-04-02T03:41:09.378Z,3.86
2023-04-02T03:42:09.324Z,3.86
2023-04-02T03:43:09.315Z,3.85
2023-04-02T03:44:09.303Z,3.86
2023-04-02T03:45:09.301Z,3.85
2023-04-02T03:46:09.282Z,3.85
2023-04-02T03:47:09.318Z,3.85
2023-04-02T03:48:09.255Z,3.83
2023-04-02T03:49:09.252Z,3.86
2023-04-02T03:50:09.239Z,3.88
2023-04-02T03:51:09.234Z,3.86
2023-04-02T03:52:09.227Z,3.86
2023-04-02T03:53:09.561Z,3.80
2023-04-02T03:54:09.203Z,3.76
2023-04-02T03:55:09.194Z,3.75
2023-04-02T03:56:09.181Z,3.75
2023-04-02T03:57:09.233Z,3.75
2023-04-02T03:58:09.156Z,3.76
2023-04-02T03:59:09.193Z,3.76
2023-04-02T04:00:09.156Z,3.75
2023-04-02T04:01:09.133Z,3.78
2023-04-02T04:02:09.156Z,3.78
2023-04-02T04:03:09.154Z,3.75
2023-04-02T04:04:09.129Z,3.78
2023-04-02T04:05:09.435Z,3.76
2023-04-02T04:06:09.086Z,3.78
2023-04-02T04:07:09.057Z,3.75
2023-04-02T04:08:09.052Z,3.75
2023-04-02T04:09:09.046Z,3.72
2023-04-02T04:10:09.048Z,3.70
2023-04-02T04:11:09.126Z,3.71
2023-04-02T04:12:09.035Z,3.68
2023-04-02T04:13:09.007Z,3.64
2023-04-02T04:14:08.995Z,3.65
2023-04-02T04:15:08.982Z,3.65
2023-04-02T04:16:09.004Z,3.67
2023-04-02T04:17:09.291Z,3.67
2023-04-02T04:18:08.969Z,3.68
2023-04-02T04:19:08.942Z,3.68
2023-04-02T04:20:08.954Z,3.70
2023-04-02T04:21:08.930Z,3.70
2023-04-02T04:22:08.912Z,3.68
2023-04-02T04:23:08.973Z,3.65
2023-04-02T04:24:09.169Z,3.67
2023-04-02T04:25:08.912Z,3.67
2023-04-02T04:26:08.868Z,3.68
2023-04-02T04:27:08.855Z,3.67
2023-04-02T04:28:08.833Z,3.65
2023-04-02T04:29:08.873Z,3.68
2023-04-02T04:30:08.830Z,3.68
2023-04-02T04:31:09.104Z,3.65
2023-04-02T04:32:08.875Z,3.67
2023-04-02T04:33:08.852Z,3.65
2023-04-02T04:34:08.778Z,3.65
2023-04-02T04:35:08.813Z,3.65
2023-04-02T04:36:08.803Z,3.64
2023-04-02T04:37:08.761Z,3.62
2023-04-02T04:38:09.024Z,3.52
2023-04-02T04:39:08.743Z,3.50
2023-04-02T04:40:08.716Z,3.52
2023-04-02T04:41:08.763Z,3.52
2023-04-02T04:42:08.733Z,3.54
2023-04-02T04:43:08.757Z,3.57
2023-04-02T04:44:08.735Z,3.57
2023-04-02T04:45:09.057Z,3.60
2023-04-02T04:46:08.738Z,3.58
2023-04-02T04:47:08.699Z,3.61
2023-04-02T04:48:08.645Z,3.58
2023-04-02T04:49:08.633Z,3.60
2023-04-02T04:50:08.611Z,3.61
2023-04-02T04:51:08.619Z,3.61
2023-04-02T04:52:08.876Z,3.62
2023-04-02T04:53:08.629Z,3.62
2023-04-02T04:54:08.586Z,3.62
2023-04-02T04:55:08.566Z,3.61
2023-04-02T04:56:18.904Z,3.57
2023-04-02T04:57:08.577Z,3.54
2023-04-02T04:58:08.540Z,3.54
2023-04-02T04:59:08.848Z,3.50
2023-04-02T05:00:08.522Z,3.50
2023-04-02T05:01:08.547Z,3.49
2023-04-02T05:02:08.493Z,3.50
2023-04-02T05:03:08.491Z,3.50
2023-04-02T05:04:08.502Z,3.52
2023-04-02T05:05:08.493Z,3.52
2023-04-02T05:06:08.723Z,3.52
2023-04-02T05:07:08.458Z,3.49
2023-04-02T05:08:08.419Z,3.49
2023-04-02T05:09:08.417Z,3.46
2023-04-02T05:10:08.411Z,3.42
2023-04-02T05:11:08.438Z,3.39
2023-04-02T05:12:08.385Z,3.40
2023-04-02T05:13:08.655Z,3.40
2023-04-02T05:14:08.356Z,3.40
2023-04-02T05:15:08.371Z,3.43
2023-04-02T05:16:08.411Z,3.44
2023-04-02T05:17:08.390Z,3.43
2023-04-02T05:18:08.334Z,3.47
2023-04-02T05:19:08.313Z,3.46
2023-04-02T05:20:08.638Z,3.43
2023-04-02T05:21:08.292Z,3.44
2023-04-02T05:22:08.382Z,3.42
2023-04-02T05:23:08.306Z,3.40
2023-04-02T05:24:08.250Z,3.34
2023-04-02T05:25:08.244Z,3.33
2023-04-02T05:26:08.233Z,3.30
2023-04-02T05:27:08.504Z,3.27
2023-04-02T05:28:08.215Z,3.31
2023-04-02T05:29:08.251Z,3.31
2023-04-02T05:30:08.201Z,3.31
2023-04-02T05:31:08.354Z,3.33
2023-04-02T05:32:08.182Z,3.34
2023-04-02T05:33:08.186Z,3.34
2023-04-02T05:34:08.449Z,3.33
2023-04-02T05:35:08.260Z,3.36
2023-04-02T05:36:08.182Z,3.36
2023-04-02T05:37:08.127Z,3.36
2023-04-02T05:38:08.143Z,3.40
2023-04-02T05:39:08.116Z,3.42
2023-04-02T05:40:08.103Z,3.43
2023-04-02T05:41:08.450Z,3.43
2023-04-02T05:42:08.067Z,3.46
2023-04-02T05:43:08.078Z,3.44
2023-04-02T05:44:08.061Z,3.44
2023-04-02T05:45:08.053Z,3.44
2023-04-02T05:46:08.094Z,3.44
2023-04-02T05:47:08.071Z,3.46
2023-04-02T05:48:08.295Z,3.47
2023-04-02T05:49:08.002Z,3.47
2023-04-02T05:50:07.993Z,3.44
2023-04-02T05:51:07.997Z,3.43
2023-04-02T05:52:08.002Z,3.42
2023-04-02T05:53:08.011Z,3.44
2023-04-02T05:54:07.954Z,3.44
2023-04-02T05:55:07.942Z,3.43
2023-04-02T05:56:07.952Z,3.44
2023-04-02T05:57:07.948Z,3.47
2023-04-02T05:58:31.968Z,3.49
2023-04-02T05:59:07.955Z,3.47
2023-04-02T06:00:07.884Z,3.44
2023-04-02T06:01:08.160Z,3.44
2023-04-02T06:02:07.873Z,3.42
2023-04-02T06:03:08.053Z,3.39
2023-04-02T06:04:07.904Z,3.42
2023-04-02T06:05:07.878Z,3.40
2023-04-02T06:06:07.815Z,3.43
2023-04-02T06:07:07.808Z,3.43
2023-04-02T06:08:08.103Z,3.46
2023-04-02T06:09:07.791Z,3.46
2023-04-02T06:10:07.789Z,3.47
2023-04-02T06:11:07.815Z,3.49
2023-04-02T06:12:07.747Z,3.52
2023-04-02T06:13:07.753Z,3.50
2023-04-02T06:14:07.751Z,3.49
2023-04-02T06:15:08.038Z,3.50
2023-04-02T06:16:07.722Z,3.52
2023-04-02T06:17:07.739Z,3.49
2023-04-02T06:18:07.731Z,3.52
2023-04-02T06:19:07.814Z,3.50
2023-04-02T06:20:07.699Z,3.49
2023-04-02T06:21:07.761Z,3.47
2023-04-02T06:22:08.096Z,3.47
2023-04-02T06:23:07.682Z,3.46
2023-04-02T06:24:07.640Z,3.47
2023-04-02T06:25:07.637Z,3.47
2023-04-02T06:26:07.617Z,3.49
2023-04-02T06:27:07.631Z,3.46
2023-04-02T06:28:07.602Z,3.43
2023-04-02T06:29:07.923Z,3.42
2023-04-02T06:30:07.592Z,3.42
2023-04-02T06:31:07.618Z,3.40
2023-04-02T06:32:07.596Z,3.43
2023-04-02T06:33:07.607Z,3.43
2023-04-02T06:34:07.541Z,3.47
2023-04-02T06:35:07.615Z,3.50
2023-04-02T06:36:07.911Z,3.52
2023-04-02T06:37:07.510Z,3.52
2023-04-02T06:38:07.500Z,3.50
2023-04-02T06:39:07.508Z,3.47
2023-04-02T06:40:07.504Z,3.49
2023-04-02T06:41:07.606Z,3.53
2023-04-02T06:42:08.061Z,3.54
2023-04-02T06:43:07.770Z,3.61
2023-04-02T06:44:07.435Z,3.64
2023-04-02T06:45:07.507Z,3.65
2023-04-02T06:46:07.463Z,3.67
2023-04-02T06:47:07.468Z,3.70
2023-04-02T06:48:07.502Z,3.70
2023-04-02T06:49:07.385Z,3.71
2023-04-02T06:50:07.380Z,3.70
2023-04-02T06:51:07.409Z,3.68
2023-04-02T06:52:07.362Z,3.70
2023-04-02T06:53:07.389Z,3.68
2023-04-02T06:54:07.342Z,3.67
2023-04-02T06:55:07.628Z,3.71
2023-04-02T06:56:07.333Z,3.70
2023-04-02T06:57:07.344Z,3.67
2023-04-02T06:58:07.373Z,3.62
2023-04-02T06:59:07.434Z,3.60
2023-04-02T07:00:07.323Z,3.57
2023-04-02T07:01:07.298Z,3.47
2023-04-02T07:02:07.269Z,3.49
2023-04-02T07:03:07.275Z,3.52
2023-04-02T07:04:07.263Z,3.53
2023-04-02T07:05:07.389Z,3.53
2023-04-02T07:06:07.268Z,3.54
2023-04-02T07:07:07.472Z,3.54
2023-04-02T07:08:07.199Z,3.58
2023-04-02T07:09:07.169Z,3.62
2023-04-02T07:10:07.179Z,3.67
2023-04-02T07:11:07.201Z,3.70
2023-04-02T07:12:07.146Z,3.72
2023-04-02T07:13:07.123Z,3.75
2023-04-02T07:14:07.414Z,3.76
2023-04-02T07:15:07.166Z,3.79
2023-04-02T07:16:07.174Z,3.78
2023-04-02T07:17:07.177Z,3.79
2023-04-02T07:18:07.156Z,3.78
2023-04-02T07:19:07.120Z,3.71
2023-04-02T07:20:07.115Z,3.65
2023-04-02T07:21:07.334Z,3.58
2023-04-02T07:22:07.028Z,3.61
2023-04-02T07:23:07.049Z,3.61
2023-04-02T07:24:07.048Z,3.62
2023-04-02T07:25:07.016Z,3.58
2023-04-02T07:26:06.988Z,3.57
2023-04-02T07:27:06.999Z,3.58
2023-04-02T07:28:07.289Z,3.64
2023-04-02T07:29:07.034Z,3.62
2023-04-02T07:30:06.952Z,3.62
2023-04-02T07:31:06.976Z,3.61
2023-04-02T07:32:06.922Z,3.61
2023-04-02T07:33:06.939Z,3.62
2023-04-02T07:34:06.912Z,3.68
2023-04-02T07:35:07.238Z,3.65
2023-04-02T07:36:07.007Z,3.65
2023-04-02T07:37:06.906Z,3.67
2023-04-02T07:38:06.871Z,3.58
2023-04-02T07:39:06.844Z,3.57
2023-04-02T07:40:06.857Z,3.61
2023-04-02T07:41:06.898Z,3.65
2023-04-02T07:42:07.140Z,3.70
2023-04-02T07:43:06.811Z,3.70
2023-04-02T07:44:06.804Z,3.71
2023-04-02T07:45:06.835Z,3.78
2023-04-02T07:46:06.814Z,3.82
2023-04-02T07:47:06.827Z,3.85
2023-04-02T07:48:06.809Z,3.88
2023-04-02T07:49:07.046Z,3.86
2023-04-02T07:50:06.772Z,3.88
2023-04-02T07:51:06.733Z,3.83
2023-04-02T07:52:06.732Z,3.78
2023-04-02T07:53:06.743Z,3.80
2023-04-02T07:54:06.713Z,3.83
2023-04-02T07:55:06.686Z,3.88
2023-04-02T07:56:06.970Z,3.92
2023-04-02T07:57:06.706Z,4.00
2023-04-02T07:58:06.674Z,4.04
2023-04-02T07:59:06.710Z,4.08
2023-04-02T08:00:06.682Z,4.12
2023-04-02T08:01:06.693Z,4.10
2023-04-02T08:02:06.794Z,4.07
2023-04-02T08:03:06.676Z,4.01
2023-04-02T08:04:06.624Z,4.01
2023-04-02T08:05:06.669Z,4.07
2023-04-02T08:06:06.573Z,4.10
2023-04-02T08:07:06.567Z,4.07
2023-04-02T08:08:06.564Z,4.07
2023-04-02T08:09:06.835Z,4.10
2023-04-02T08:10:06.699Z,4.12
2023-04-02T08:11:06.572Z,4.16
2023-04-02T08:12:06.520Z,4.22
2023-04-02T08:13:06.527Z,4.25
2023-04-02T08:14:06.496Z,4.29
2023-04-02T08:15:06.642Z,4.36
2023-04-02T08:16:06.831Z,4.40
2023-04-02T08:17:06.518Z,4.46
2023-04-02T08:18:06.541Z,4.50
2023-04-02T08:19:06.486Z,4.50
2023-04-02T08:20:07.266Z,4.47
2023-04-02T08:21:06.462Z,4.54
2023-04-02T08:22:06.416Z,4.52
2023-04-02T08:23:06.758Z,4.52
2023-04-02T08:24:06.391Z,4.50
2023-04-02T08:25:06.387Z,4.46
2023-04-02T08:26:06.392Z,4.44
2023-04-02T08:27:06.381Z,4.43
2023-04-02T08:28:06.363Z,4.44
2023-04-02T08:29:06.434Z,4.46
2023-04-02T08:30:06.380Z,4.50
2023-04-02T08:31:06.370Z,4.47
2023-04-02T08:32:06.307Z,4.50
2023-04-02T08:33:06.401Z,4.44
2023-04-02T08:34:06.297Z,4.40
2023-04-02T08:35:06.391Z,4.39
2023-04-02T08:36:06.300Z,4.40
2023-04-02T08:37:06.280Z,4.40
2023-04-02T08:38:06.353Z,4.39
2023-04-02T08:39:07.198Z,4.40
2023-04-02T08:40:06.320Z,4.43
2023-04-02T08:41:06.798Z,4.42
2023-04-02T08:42:06.550Z,4.44
2023-04-02T08:43:06.319Z,4.46
2023-04-02T08:44:06.249Z,4.47
2023-04-02T08:45:23.121Z,4.44
2023-04-02T08:46:06.209Z,4.46
2023-04-02T08:47:06.236Z,4.47
2023-04-02T08:48:06.195Z,4.43
2023-04-02T08:49:06.245Z,4.37
2023-04-02T08:50:06.181Z,4.42
2023-04-02T08:51:06.130Z,4.37
2023-04-02T08:52:06.114Z,4.42
2023-04-02T08:53:06.253Z,4.42
2023-04-02T08:54:06.417Z,4.42
2023-04-02T08:55:06.141Z,4.44
2023-04-02T08:56:06.162Z,4.44
2023-04-02T08:57:06.119Z,4.42
2023-04-02T08:58:06.253Z,4.40
2023-04-02T08:59:06.098Z,4.43
2023-04-02T09:00:06.085Z,4.40
2023-04-02T09:01:06.107Z,4.50
2023-04-02T09:02:06.034Z,4.54
2023-04-02T09:03:06.043Z,4.64
2023-04-02T09:04:05.993Z,4.65
2023-04-02T09:05:06.320Z,4.62
2023-04-02T09:06:06.297Z,4.65
2023-04-02T09:07:05.975Z,4.64
2023-04-02T09:08:05.956Z,4.57
2023-04-02T09:09:05.950Z,4.50
2023-04-02T09:10:05.986Z,4.57
2023-04-02T09:11:06.104Z,4.62
2023-04-02T09:12:05.989Z,4.65
2023-04-02T09:13:05.927Z,4.62
2023-04-02T09:14:05.909Z,4.67
2023-04-02T09:15:05.871Z,4.70
2023-04-02T09:16:06.008Z,4.69
2023-04-02T09:17:06.022Z,4.55
2023-04-02T09:18:05.921Z,4.59
2023-04-02T09:19:06.180Z,4.61
2023-04-02T09:20:05.834Z,4.64
2023-04-02T09:21:05.943Z,4.73
2023-04-02T09:22:05.798Z,4.80
2023-04-02T09:23:05.869Z,4.86
2023-04-02T09:24:05.820Z,4.84
2023-04-02T09:25:05.784Z,4.86
2023-04-02T09:26:06.056Z,4.79
2023-04-02T09:27:05.741Z,4.83
2023-04-02T09:28:05.755Z,4.80
2023-04-02T09:29:05.777Z,4.76
2023-04-02T09:30:05.885Z,4.79
2023-04-02T09:31:07.003Z,4.72
2023-04-02T09:32:05.720Z,4.76
2023-04-02T09:33:06.080Z,4.75
2023-04-02T09:34:05.725Z,4.83
2023-04-02T09:35:15.085Z,4.94
2023-04-02T09:36:05.898Z,4.99
2023-04-02T09:37:05.677Z,5.05
2023-04-02T09:38:05.689Z,5.14
2023-04-02T09:39:05.669Z,5.23
2023-04-02T09:40:05.980Z,5.27
2023-04-02T09:41:05.823Z,5.28
2023-04-02T09:42:06.109Z,5.10
2023-04-02T09:43:05.625Z,5.07
2023-04-02T09:44:05.585Z,5.13
2023-04-02T09:45:05.567Z,5.20
2023-04-02T09:46:05.561Z,5.40
2023-04-02T09:47:05.789Z,5.96
2023-04-02T09:48:05.569Z,6.03
2023-04-02T09:49:05.542Z,6.19
2023-04-02T09:50:05.522Z,6.38
2023-04-02T09:51:05.506Z,6.28
2023-04-02T09:52:05.519Z,6.25
2023-04-02T09:53:05.521Z,6.26
2023-04-02T09:54:05.474Z,6.36
2023-04-02T09:55:05.454Z,6.47
2023-04-02T09:56:05.453Z,6.44
2023-04-02T09:57:05.487Z,6.48
2023-04-02T09:58:05.423Z,6.51
2023-04-02T09:59:05.746Z,6.59
2023-04-02T10:00:05.474Z,6.59
2023-04-02T10:01:05.413Z,6.76
2023-04-02T10:02:06.197Z,6.84
2023-04-02T10:03:05.414Z,6.95
2023-04-02T10:04:05.441Z,6.90
2023-04-02T10:05:05.448Z,6.81
2023-04-02T10:06:05.371Z,6.59
2023-04-02T10:07:05.333Z,6.56
2023-04-02T10:08:05.365Z,6.56
2023-04-02T10:09:05.335Z,6.50
2023-04-02T10:10:05.604Z,6.36
2023-04-02T10:11:05.710Z,6.29
2023-04-02T10:12:05.318Z,6.32
2023-04-02T10:13:05.289Z,6.25
2023-04-02T10:14:05.268Z,6.04
2023-04-02T10:15:05.252Z,5.88
2023-04-02T10:16:05.354Z,5.78
2023-04-02T10:17:05.344Z,5.77
2023-04-02T10:18:05.315Z,5.88
2023-04-02T10:19:05.225Z,6.01
2023-04-02T10:20:05.196Z,6.43
2023-04-02T10:21:05.232Z,6.76
2023-04-02T10:22:05.240Z,6.80
2023-04-02T10:23:06.517Z,6.83
2023-04-02T10:24:05.473Z,6.84
2023-04-02T10:25:05.157Z,7.07
2023-04-02T10:26:05.155Z,7.53
2023-04-02T10:27:05.181Z,7.82
2023-04-02T10:28:05.103Z,8.07
2023-04-02T10:29:06.870Z,8.58
2023-04-02T10:30:05.271Z,8.78
2023-04-02T10:31:05.429Z,8.91
2023-04-02T10:32:05.138Z,9.18
2023-04-02T10:33:05.110Z,8.99
2023-04-02T10:34:05.068Z,9.13
2023-04-02T10:35:05.111Z,9.43
2023-04-02T10:36:05.338Z,9.88
2023-04-02T10:37:05.061Z,10.37
2023-04-02T10:38:05.041Z,10.10
2023-04-02T10:39:05.055Z,10.28
2023-04-02T10:40:05.103Z,9.83
2023-04-02T10:41:05.099Z,9.58
2023-04-02T10:42:05.110Z,9.15
2023-04-02T10:43:05.023Z,9.09
2023-04-02T10:44:16.782Z,9.10
2023-04-02T10:45:05.024Z,9.12
2023-04-02T10:46:05.733Z,9.12
2023-04-02T10:47:07.273Z,9.05
2023-04-02T10:48:05.078Z,9.15
2023-04-02T10:49:04.978Z,9.35
2023-04-02T10:50:04.986Z,9.13
2023-04-02T10:51:04.977Z,9.46
2023-04-02T10:52:05.813Z,9.58
2023-04-02T10:53:06.281Z,9.93
2023-04-02T10:54:05.231Z,9.60
2023-04-02T10:55:04.997Z,9.53
2023-04-02T10:56:04.919Z,9.93
2023-04-02T10:57:05.821Z,9.75
2023-04-02T10:58:04.856Z,9.58
2023-04-02T10:59:04.900Z,8.90
2023-04-02T11:00:04.868Z,8.75
2023-04-02T11:01:06.118Z,8.50
2023-04-02T11:02:04.805Z,8.53
2023-04-02T11:03:04.870Z,8.51
2023-04-02T11:04:04.781Z,8.50
2023-04-02T11:05:05.038Z,8.50
2023-04-02T11:06:04.742Z,8.51
2023-04-02T11:07:13.657Z,8.54
2023-04-02T11:08:04.753Z,8.71
2023-04-02T11:09:04.724Z,9.10
2023-04-02T11:10:04.692Z,9.12
2023-04-02T11:11:04.857Z,9.12
2023-04-02T11:12:04.702Z,9.27
2023-04-02T11:13:04.662Z,9.25
2023-04-02T11:14:04.945Z,8.94
2023-04-02T11:15:04.616Z,8.88
2023-04-02T11:16:04.667Z,8.94
2023-04-02T11:17:04.936Z,8.87
2023-04-02T11:18:04.647Z,8.79
2023-04-02T11:19:04.581Z,8.73
2023-04-02T11:20:04.713Z,8.86
2023-04-02T11:21:04.863Z,8.76
2023-04-02T11:22:06.727Z,8.60
2023-04-02T11:23:04.617Z,8.86
2023-04-02T11:24:04.581Z,8.97
2023-04-02T11:25:04.777Z,8.60
2023-04-02T11:26:04.517Z,8.54
2023-04-02T11:27:04.797Z,8.81
2023-04-02T11:28:04.902Z,9.13
2023-04-02T11:29:04.515Z,9.48
2023-04-02T11:30:04.502Z,9.97
2023-04-02T11:31:04.484Z,10.18
2023-04-02T11:32:04.470Z,10.36
2023-04-02T11:33:04.578Z,10.68
2023-04-02T11:34:04.448Z,10.81
2023-04-02T11:35:07.008Z,10.88
2023-04-02T11:36:04.490Z,10.96
2023-04-02T11:37:04.410Z,11.35
2023-04-02T11:38:04.414Z,11.70
2023-04-02T11:39:11.019Z,11.82
2023-04-02T11:40:04.508Z,11.57
2023-04-02T11:41:04.385Z,11.56
2023-04-02T11:42:04.644Z,11.75
2023-04-02T11:43:04.363Z,11.83
2023-04-02T11:44:04.336Z,11.82
2023-04-02T11:45:04.352Z,12.01
2023-04-02T11:46:04.346Z,12.02
2023-04-02T11:47:04.370Z,11.24
2023-04-02T11:48:04.343Z,10.53
2023-04-02T11:49:04.721Z,10.42
2023-04-02T11:50:04.510Z,10.30
2023-04-02T11:51:05.230Z,10.59
2023-04-02T11:52:12.013Z,10.37
2023-04-02T11:53:04.341Z,10.53
2023-04-02T11:54:04.232Z,10.73
2023-04-02T11:55:04.251Z,10.96
2023-04-02T11:56:04.456Z,11.19
2023-04-02T11:57:04.464Z,11.07
2023-04-02T11:58:04.232Z,11.21
2023-04-02T11:59:04.377Z,11.13
2023-04-02T12:00:04.140Z,11.27
2023-04-02T12:01:04.146Z,11.29
2023-04-02T12:02:05.015Z,11.67
2023-04-02T12:03:04.493Z,11.32
2023-04-02T12:04:04.132Z,11.62
2023-04-02T12:05:04.562Z,11.25
2023-04-02T12:06:04.388Z,10.83
2023-04-02T12:07:04.216Z,11.09
2023-04-02T12:08:04.817Z,11.32
2023-04-02T12:09:04.878Z,11.46
2023-04-02T12:10:06.412Z,11.68
2023-04-02T12:11:04.427Z,11.74
2023-04-02T12:12:04.035Z,11.46
2023-04-02T12:13:04.094Z,12.09
2023-04-02T12:14:04.048Z,12.71
2023-04-02T12:15:04.064Z,12.51
2023-04-02T12:16:04.041Z,12.24
2023-04-02T12:17:05.383Z,12.37
2023-04-02T12:18:04.092Z,12.24
2023-04-02T12:19:04.072Z,11.97
2023-04-02T12:20:08.622Z,12.24
2023-04-02T12:21:03.994Z,12.01
2023-04-02T12:22:03.920Z,11.72
2023-04-02T12:23:05.141Z,12.09
2023-04-02T12:24:05.351Z,12.54
2023-04-02T12:25:03.982Z,12.81
2023-04-02T12:26:03.919Z,13.07
2023-04-02T12:27:03.884Z,13.04
2023-04-02T12:28:03.860Z,13.02
2023-04-02T12:29:03.955Z,12.66
2023-04-02T12:30:03.862Z,13.00
2023-04-02T12:31:04.224Z,13.12
2023-04-02T12:32:03.839Z,12.42
2023-04-02T12:33:03.874Z,12.05
2023-04-02T12:34:03.820Z,12.42
2023-04-02T12:35:03.839Z,12.89
2023-04-02T12:36:04.230Z,12.34
2023-04-02T12:37:03.845Z,11.96
2023-04-02T12:38:04.293Z,11.38
2023-04-02T12:39:03.795Z,10.24
2023-04-02T12:40:04.043Z,9.75
2023-04-02T12:41:03.852Z,9.91
2023-04-02T12:42:03.693Z,10.58
2023-04-02T12:43:03.725Z,10.98
2023-04-02T12:44:04.321Z,10.74
2023-04-02T12:45:04.033Z,10.77
2023-04-02T12:46:03.748Z,11.27
2023-04-02T12:47:03.731Z,11.06
2023-04-02T12:48:03.760Z,10.80
2023-04-02T12:49:03.740Z,10.55
2023-04-02T12:50:03.732Z,10.15
2023-04-02T12:51:03.609Z,10.22
2023-04-02T12:52:03.972Z,10.84
2023-04-02T12:53:03.739Z,11.27
2023-04-02T12:54:03.597Z,11.35
2023-04-02T12:55:03.618Z,11.47
2023-04-02T12:56:04.340Z,11.54
2023-04-02T12:57:03.729Z,11.72
2023-04-02T12:58:03.573Z,11.83
2023-04-02T12:59:04.009Z,11.90
2023-04-02T13:00:03.569Z,12.08
2023-04-02T13:01:04.328Z,12.09
2023-04-02T13:02:03.739Z,12.38
2023-04-02T13:03:03.680Z,12.56
2023-04-02T13:04:03.513Z,12.37
2023-04-02T13:05:03.527Z,12.57
2023-04-02T13:06:03.799Z,12.66
2023-04-02T13:07:03.493Z,12.82
2023-04-02T13:08:03.508Z,12.63
2023-04-02T13:09:03.910Z,12.21
2023-04-02T13:10:03.422Z,11.97
2023-04-02T13:11:03.499Z,11.94
2023-04-02T13:12:03.408Z,12.26
2023-04-02T13:13:04.765Z,12.05
2023-04-02T13:14:03.422Z,12.56